Time;durP1;ratioP1;P1;durP2;ratioP2;P2;SDS_P1;SDS_P2;PMS_P1;PMS_P2;Temp;Humidity;BMP_temperature;BMP_pressure;BME280_temperature;BME280_humidity;BME280_pressure;Samples;Min_cycle;Max_cycle;Signal;HPM_P1;HPM_P2
2022/01/19 00:02:20;;;;;;;15.93;8.70;;;20.40;80.60;;;;;;1959484;72;21743;-82
2022/01/19 00:04:51;;;;;;;32.25;9.25;;;20.40;79.60;;;;;;1951591;72;21222;-82
2022/01/19 00:07:21;;;;;;;22.48;9.50;;;20.40;79.80;;;;;;1896064;72;21167;-83
2022/01/19 00:09:52;;;;;;;18.20;8.85;;;20.40;79.50;;;;;;1936938;72;21162;-83
2022/01/19 00:12:23;;;;;;;17.35;10.32;;;20.50;79.70;;;;;;1967777;72;21087;-83
2022/01/19 00:14:53;;;;;;;10.90;7.33;;;20.50;79.50;;;;;;1966253;71;21142;-84
2022/01/19 00:17:26;;;;;;;13.93;8.43;;;20.60;78.90;;;;;;1961028;72;21166;-83
2022/01/19 00:19:56;;;;;;;12.00;9.43;;;20.60;78.40;;;;;;1952193;72;21356;-84
2022/01/19 00:22:27;;;;;;;15.35;10.82;;;20.70;78.20;;;;;;1956349;72;21111;-82
2022/01/19 00:24:58;;;;;;;15.25;11.43;;;20.70;78.00;;;;;;1963313;71;21148;-82
2022/01/19 00:27:29;;;;;;;21.42;12.20;;;20.80;77.70;;;;;;1962428;71;22210;-82
2022/01/19 00:29:59;;;;;;;20.52;12.63;;;20.80;77.40;;;;;;1947938;72;21198;-82
2022/01/19 00:32:30;;;;;;;18.30;10.05;;;20.90;76.90;;;;;;1952173;72;21159;-84
2022/01/19 00:35:06;;;;;;;11.93;8.90;;;20.90;76.40;;;;;;1969482;72;21146;-83
2022/01/19 00:37:37;;;;;;;14.98;9.48;;;20.90;76.30;;;;;;1924716;72;21174;-83
2022/01/19 00:40:10;;;;;;;17.75;9.75;;;20.90;76.40;;;;;;1947888;72;21076;-83
2022/01/19 00:42:41;;;;;;;16.73;9.00;;;21.00;76.50;;;;;;1952505;71;21279;-82
2022/01/19 00:45:13;;;;;;;10.78;8.40;;;21.00;76.20;;;;;;1962088;71;21857;-85
2022/01/19 00:47:44;;;;;;;12.53;8.43;;;21.00;75.90;;;;;;1970235;71;21236;-84
2022/01/19 00:50:17;;;;;;;14.13;8.45;;;21.10;75.70;;;;;;1963133;72;21095;-84
2022/01/19 00:52:51;;;;;;;14.30;9.45;;;21.10;75.80;;;;;;1967423;72;21126;-84
2022/01/19 00:55:23;;;;;;;20.10;12.58;;;21.20;75.90;;;;;;1956219;72;21111;-82
2022/01/19 00:57:53;;;;;;;14.68;10.28;;;21.20;75.80;;;;;;1954547;72;21087;-83
2022/01/19 01:00:27;;;;;;;15.80;11.05;;;21.30;75.50;;;;;;1956628;72;21106;-84
2022/01/19 01:02:58;;;;;;;15.80;9.80;;;21.30;75.30;;;;;;1871121;74;21153;-83
2022/01/19 01:05:30;;;;;;;16.23;9.73;;;21.30;75.10;;;;;;1892480;74;21150;-84
2022/01/19 01:08:01;;;;;;;13.10;9.43;;;21.40;74.70;;;;;;1952634;72;21095;-84
2022/01/19 01:10:40;;;;;;;12.00;9.15;;;21.40;74.60;;;;;;1947307;72;21131;-83
2022/01/19 01:13:21;;;;;;;12.13;8.00;;;21.40;74.50;;;;;;1954775;72;21224;-72
2022/01/19 01:18:22;;;;;;;15.63;9.03;;;21.50;74.30;;;;;;1938498;72;21155;-73
2022/01/19 01:20:42;;;;;;;13.20;8.95;;;21.50;74.40;;;;;;1961803;72;21837;-72
2022/01/19 01:23:13;;;;;;;16.02;8.63;;;21.50;75.20;;;;;;1953833;72;21208;-74
2022/01/19 01:25:43;;;;;;;18.40;9.40;;;21.60;74.50;;;;;;1955473;72;21188;-73
2022/01/19 01:28:15;;;;;;;16.37;9.78;;;21.60;74.70;;;;;;1965588;72;21707;-74
2022/01/19 01:30:47;;;;;;;17.92;10.25;;;21.60;74.60;;;;;;1960471;72;21191;-73
2022/01/19 01:33:18;;;;;;;15.23;9.50;;;21.60;74.60;;;;;;1957672;71;21159;-72
2022/01/19 01:35:49;;;;;;;17.35;10.80;;;21.70;74.60;;;;;;1965540;72;21154;-73
2022/01/19 01:38:20;;;;;;;15.68;9.35;;;21.70;74.40;;;;;;1957227;72;21111;-73
2022/01/19 01:40:52;;;;;;;16.05;10.50;;;21.70;73.70;;;;;;1957709;72;21706;-72
2022/01/19 01:43:22;;;;;;;13.88;9.25;;;21.70;73.60;;;;;;1962385;72;21765;-73
2022/01/19 01:46:01;;;;;;;17.98;9.93;;;21.80;73.50;;;;;;1952150;72;21637;-73
2022/01/19 01:48:26;;;;;;;16.55;8.95;;;21.80;73.20;;;;;;1950548;72;21707;-72
2022/01/19 01:53:32;;;;;;;12.00;8.73;;;21.90;72.90;;;;;;1955606;72;21060;-71
2022/01/19 01:56:05;;;;;;;14.95;9.93;;;22.00;73.00;;;;;;1970866;71;21213;-72
2022/01/19 01:58:39;;;;;;;19.05;10.10;;;22.00;73.00;;;;;;1968259;72;21673;-73
2022/01/19 02:01:11;;;;;;;17.62;9.50;;;22.00;73.00;;;;;;1972585;72;21283;-73
2022/01/19 02:03:43;;;;;;;11.53;8.33;;;22.00;73.00;;;;;;1964494;72;21040;-72
2022/01/19 02:08:57;;;;;;;15.72;10.05;;;22.10;73.00;;;;;;1954906;72;21510;-72
2022/01/19 02:24:13;;;;;;;13.62;9.13;;;22.40;71.70;;;;;;1957037;71;21240;-72
2022/01/19 02:41:57;;;;;;;7.90;5.00;;;22.80;69.30;;;;;;1965960;72;21138;-73
2022/01/19 02:44:39;;;;;;;8.23;4.35;;;22.80;68.90;;;;;;1960472;72;21614;-73
2022/01/19 02:49:33;;;;;;;8.05;4.65;;;23.00;67.80;;;;;;1967094;71;21146;-73
2022/01/19 02:52:05;;;;;;;9.10;5.50;;;23.00;67.30;;;;;;1964214;72;21728;-73
2022/01/19 02:54:36;;;;;;;7.37;5.28;;;23.10;67.50;;;;;;1889150;73;21120;-73
2022/01/19 02:57:11;;;;;;;8.80;4.55;;;23.10;67.50;;;;;;1960471;72;21626;-72
2022/01/19 03:09:49;;;;;;;7.35;4.35;;;23.30;67.20;;;;;;1954633;72;21143;-72
2022/01/19 03:12:20;;;;;;;9.80;4.60;;;23.40;66.50;;;;;;1952958;72;21107;-72
2022/01/19 03:14:51;;;;;;;6.60;3.98;;;23.40;66.60;;;;;;1959789;72;21158;-72
2022/01/19 03:17:22;;;;;;;9.20;4.55;;;23.50;66.40;;;;;;1960223;72;21436;-72
2022/01/19 03:19:52;;;;;;;7.70;3.90;;;23.60;66.00;;;;;;1957771;72;21457;-72
2022/01/19 03:22:31;;;;;;;9.13;4.30;;;23.60;65.70;;;;;;1955498;72;21080;-73
2022/01/19 03:24:56;;;;;;;5.83;3.85;;;23.70;65.80;;;;;;1887356;73;21584;-73
2022/01/19 03:27:27;;;;;;;5.92;3.90;;;23.80;65.10;;;;;;1892040;74;21162;-73
2022/01/19 03:29:58;;;;;;;6.60;4.05;;;23.80;64.80;;;;;;1902470;73;21708;-73
2022/01/19 03:32:28;;;;;;;13.55;4.30;;;23.90;64.70;;;;;;1956518;72;21595;-72
2022/01/19 03:34:59;;;;;;;8.10;4.20;;;23.90;64.60;;;;;;1967909;71;21152;-73
2022/01/19 03:37:31;;;;;;;5.83;3.60;;;24.00;64.10;;;;;;1963263;72;21182;-72
2022/01/19 03:40:02;;;;;;;5.83;4.03;;;24.00;63.70;;;;;;1964713;72;21164;-73
2022/01/19 03:42:33;;;;;;;9.20;4.05;;;24.10;64.00;;;;;;1955657;72;21216;-74
2022/01/19 03:45:08;;;;;;;6.10;3.77;;;24.10;64.20;;;;;;1967039;72;21134;-73
2022/01/19 03:47:40;;;;;;;6.15;3.72;;;24.30;63.80;;;;;;1961436;72;21086;-72
2022/01/19 03:50:11;;;;;;;7.12;4.05;;;24.40;63.70;;;;;;1953911;72;21114;-72
2022/01/19 03:52:42;;;;;;;7.65;4.50;;;24.50;63.10;;;;;;1955414;72;21944;-73
2022/01/19 03:55:13;;;;;;;9.15;4.28;;;24.60;62.90;;;;;;1961271;72;21559;-73
2022/01/19 03:57:43;;;;;;;7.25;4.47;;;24.70;62.10;;;;;;1951422;72;21211;-73
2022/01/19 04:00:15;;;;;;;7.70;4.45;;;24.70;62.50;;;;;;1960970;72;21201;-74
2022/01/19 04:02:48;;;;;;;7.50;4.12;;;24.80;62.50;;;;;;1913925;72;21686;-74
2022/01/19 04:05:27;;;;;;;7.62;4.53;;;24.90;62.10;;;;;;1945615;71;21061;-74
2022/01/19 04:07:51;;;;;;;8.50;4.20;;;25.00;62.00;;;;;;1954172;72;21123;-71
2022/01/19 04:10:21;;;;;;;7.40;4.00;;;25.20;62.60;;;;;;1954910;72;21123;-73
2022/01/19 04:12:57;;;;;;;6.65;4.10;;;25.30;60.90;;;;;;1894580;73;21158;-74
2022/01/19 04:15:25;;;;;;;7.12;4.08;;;25.40;60.70;;;;;;1893075;73;21116;-74
2022/01/19 04:17:55;;;;;;;7.00;4.05;;;25.40;60.40;;;;;;1959791;72;21135;-74
2022/01/19 04:20:26;;;;;;;6.08;4.35;;;25.50;59.90;;;;;;1961739;72;21168;-75
2022/01/19 04:22:57;;;;;;;6.22;4.60;;;25.70;59.50;;;;;;1968763;72;21174;-74
2022/01/19 04:25:28;;;;;;;7.70;4.58;;;25.70;59.30;;;;;;1957509;72;21123;-75
2022/01/19 04:27:58;;;;;;;6.47;4.55;;;25.80;59.10;;;;;;1962903;72;21142;-74
2022/01/19 04:30:29;;;;;;;8.90;4.78;;;25.90;59.30;;;;;;1961433;72;21622;-74
2022/01/19 04:33:14;;;;;;;7.67;4.70;;;26.00;59.10;;;;;;1956202;72;21563;-74
2022/01/19 04:35:44;;;;;;;5.87;3.95;;;26.10;58.70;;;;;;1958920;72;21127;-74
2022/01/19 04:48:26;;;;;;;6.28;4.85;;;26.40;58.30;;;;;;1955508;72;21271;-72
2022/01/19 05:03:43;;;;;;;7.60;4.53;;;26.90;57.20;;;;;;1961117;72;21173;-72
2022/01/19 05:06:05;;;;;;;11.22;5.62;;;26.90;57.40;;;;;;1964471;72;21150;-72
2022/01/19 05:13:37;;;;;;;9.38;4.70;;;27.10;57.40;;;;;;1955435;72;21717;-74
2022/01/19 05:16:08;;;;;;;8.13;4.20;;;27.20;57.60;;;;;;1960383;72;21245;-73
2022/01/19 05:18:39;;;;;;;6.97;4.58;;;27.30;57.90;;;;;;1909111;73;21174;-74
2022/01/19 05:21:10;;;;;;;6.08;4.03;;;27.40;57.00;;;;;;1890322;74;21260;-74
2022/01/19 05:23:41;;;;;;;8.55;4.50;;;27.50;56.50;;;;;;1892111;74;21778;-72
2022/01/19 05:26:12;;;;;;;7.83;4.37;;;27.50;56.50;;;;;;1916266;73;21084;-73
2022/01/19 05:28:43;;;;;;;12.55;4.65;;;27.50;56.50;;;;;;1958369;72;21111;-73
2022/01/19 05:31:15;;;;;;;7.83;4.47;;;27.60;56.40;;;;;;1959860;72;21087;-73
2022/01/19 05:33:46;;;;;;;4.85;3.62;;;27.60;56.60;;;;;;1966417;72;21107;-73
2022/01/19 05:36:16;;;;;;;6.67;3.80;;;27.60;56.20;;;;;;1953348;72;21154;-73
2022/01/19 05:38:47;;;;;;;5.78;3.98;;;27.60;56.20;;;;;;1950739;72;21208;-73
2022/01/19 05:41:19;;;;;;;5.12;3.70;;;27.60;57.00;;;;;;1952467;72;21179;-72
2022/01/19 05:43:50;;;;;;;5.90;3.70;;;27.70;56.10;;;;;;1963297;72;21150;-72
2022/01/19 05:46:22;;;;;;;7.97;3.75;;;27.60;56.00;;;;;;1956689;72;21119;-72
2022/01/19 05:48:53;;;;;;;10.00;4.17;;;27.60;56.20;;;;;;1960583;71;21177;-74
2022/01/19 05:51:25;;;;;;;9.73;4.58;;;27.70;56.00;;;;;;1963628;71;21233;-72
2022/01/19 05:53:56;;;;;;;7.83;4.20;;;27.70;56.20;;;;;;1959817;72;21671;-73
2022/01/19 05:56:27;;;;;;;5.42;3.62;;;27.80;55.80;;;;;;1961072;72;21169;-73
2022/01/19 05:58:58;;;;;;;7.85;4.50;;;27.90;56.10;;;;;;1954419;72;21045;-73
2022/01/19 06:01:28;;;;;;;8.40;5.35;;;27.90;55.80;;;;;;1957043;72;21192;-73
2022/01/19 06:03:59;;;;;;;8.10;4.05;;;28.00;56.40;;;;;;1930094;72;21728;-74
2022/01/19 06:06:32;;;;;;;6.65;3.80;;;28.00;55.50;;;;;;1961845;71;21095;-73
2022/01/19 06:09:10;;;;;;;8.15;4.00;;;28.00;55.80;;;;;;1950271;72;21201;-73
2022/01/19 06:11:35;;;;;;;7.53;3.70;;;28.00;55.50;;;;;;1961357;72;21646;-74
2022/01/19 06:14:06;;;;;;;5.40;3.98;;;28.00;55.40;;;;;;1961264;72;21100;-72
2022/01/19 06:16:37;;;;;;;8.48;4.42;;;28.00;55.30;;;;;;1962281;72;21169;-72
2022/01/19 06:19:09;;;;;;;7.08;4.33;;;28.00;55.50;;;;;;1954294;71;21574;-72
2022/01/19 06:21:40;;;;;;;7.65;4.87;;;28.10;55.40;;;;;;1957200;72;21228;-72
2022/01/19 06:24:10;;;;;;;7.47;4.80;;;28.20;54.50;;;;;;1957424;72;21701;-72
2022/01/19 06:26:41;;;;;;;6.72;4.85;;;28.20;55.70;;;;;;1964159;71;21645;-73
2022/01/19 06:29:13;;;;;;;8.88;5.45;;;28.30;55.00;;;;;;1958031;71;21162;-73
2022/01/19 06:31:43;;;;;;;11.78;5.33;;;28.40;54.60;;;;;;1971088;72;22127;-72
2022/01/19 06:34:16;;;;;;;8.38;4.83;;;28.40;54.40;;;;;;1900438;73;21732;-72
2022/01/19 06:36:51;;;;;;;7.85;5.08;;;28.50;54.50;;;;;;1963270;72;21193;-74
2022/01/19 06:39:19;;;;;;;9.73;5.33;;;28.40;54.90;;;;;;1967173;72;21767;-73
2022/01/19 06:41:50;;;;;;;8.03;4.75;;;28.40;54.60;;;;;;1905159;72;21224;-73
2022/01/19 06:44:21;;;;;;;9.28;5.20;;;28.40;54.80;;;;;;1956557;72;21151;-74
2022/01/19 06:46:51;;;;;;;8.95;4.33;;;28.40;55.20;;;;;;1953603;72;21153;-74
2022/01/19 06:49:22;;;;;;;7.37;3.98;;;28.40;55.00;;;;;;1965197;71;21119;-74
2022/01/19 06:51:53;;;;;;;8.08;4.62;;;28.40;54.70;;;;;;1934279;72;21154;-73
2022/01/19 06:54:23;;;;;;;7.62;4.80;;;28.40;54.90;;;;;;1970145;72;21157;-73
2022/01/19 06:56:54;;;;;;;9.70;5.42;;;28.40;55.00;;;;;;1888434;73;21221;-73
2022/01/19 06:59:25;;;;;;;9.90;5.50;;;28.30;54.70;;;;;;1958148;72;21146;-73
2022/01/19 07:01:55;;;;;;;10.75;5.35;;;28.40;54.80;;;;;;1900472;73;21155;-72
2022/01/19 07:04:27;;;;;;;9.18;5.05;;;28.40;54.80;;;;;;1894859;74;21126;-73
2022/01/19 07:06:57;;;;;;;8.23;4.90;;;28.40;54.80;;;;;;1897059;74;21179;-72
2022/01/19 07:09:28;;;;;;;6.67;4.40;;;28.40;54.70;;;;;;1954312;71;21155;-73
2022/01/19 07:12:00;;;;;;;8.95;5.53;;;28.40;54.50;;;;;;1952612;72;21159;-73
2022/01/19 07:14:31;;;;;;;10.30;5.67;;;28.50;54.60;;;;;;1972676;71;21227;-72
2022/01/19 07:17:02;;;;;;;12.30;5.97;;;28.50;55.60;;;;;;1957581;72;21268;-72
2022/01/19 07:19:33;;;;;;;9.05;4.95;;;28.60;54.20;;;;;;1903527;73;21135;-73
2022/01/19 07:22:04;;;;;;;14.58;6.22;;;28.60;53.90;;;;;;1902590;73;21179;-72
2022/01/19 07:24:35;;;;;;;7.80;5.50;;;28.70;54.10;;;;;;1907702;74;21107;-72
2022/01/19 07:27:06;;;;;;;8.85;5.67;;;28.70;53.80;;;;;;1910979;73;21111;-71
2022/01/19 07:29:37;;;;;;;9.63;6.00;;;28.70;54.70;;;;;;1902988;73;21737;-72
2022/01/19 07:32:10;;;;;;;9.08;5.60;;;28.70;53.90;;;;;;1883643;74;21130;-72
2022/01/19 07:34:40;;;;;;;11.28;5.55;;;28.70;54.00;;;;;;1902997;73;21122;-72
2022/01/19 07:37:11;;;;;;;11.70;5.80;;;28.60;54.50;;;;;;1900498;73;21167;-72
2022/01/19 07:39:42;;;;;;;12.55;8.55;;;28.70;54.70;;;;;;1896085;73;21223;-71
2022/01/19 07:42:12;;;;;;;9.53;5.40;;;28.70;54.50;;;;;;1953390;72;21780;-73
2022/01/19 07:44:43;;;;;;;12.28;5.90;;;28.70;54.10;;;;;;1960010;71;21104;-72
2022/01/19 07:47:14;;;;;;;8.73;5.78;;;28.70;54.10;;;;;;1962132;72;21209;-73
2022/01/19 07:49:44;;;;;;;7.17;5.00;;;28.70;54.20;;;;;;1869727;74;21161;-71
2022/01/19 07:52:16;;;;;;;9.85;5.75;;;28.70;54.30;;;;;;1892723;73;21663;-70
2022/01/19 07:54:46;;;;;;;9.18;5.87;;;28.70;54.10;;;;;;1882863;73;21157;-72
2022/01/19 07:57:18;;;;;;;9.28;5.80;;;28.60;54.20;;;;;;1884974;74;21127;-72
2022/01/19 07:59:49;;;;;;;8.00;5.08;;;28.60;54.30;;;;;;1893388;73;21225;-72
2022/01/19 08:02:20;;;;;;;10.05;5.50;;;28.50;54.00;;;;;;1888967;73;21198;-72
2022/01/19 08:04:51;;;;;;;7.42;5.47;;;28.50;54.10;;;;;;1903171;74;21182;-73
2022/01/19 08:07:21;;;;;;;7.03;5.17;;;28.50;54.40;;;;;;1863204;74;21175;-73
2022/01/19 08:09:52;;;;;;;11.18;6.05;;;28.50;54.40;;;;;;1935829;71;21661;-72
2022/01/19 08:12:23;;;;;;;7.50;5.55;;;28.40;54.60;;;;;;1932885;73;21064;-73
2022/01/19 08:14:54;;;;;;;10.08;5.85;;;28.50;54.70;;;;;;1900284;74;21213;-73
2022/01/19 08:17:26;;;;;;;9.08;5.50;;;28.40;54.80;;;;;;1964555;72;21888;-73
2022/01/19 08:19:58;;;;;;;8.58;5.35;;;28.40;54.60;;;;;;1915335;73;21638;-73
2022/01/19 08:22:28;;;;;;;7.75;4.97;;;28.50;55.00;;;;;;1891639;74;21213;-73
2022/01/19 08:24:59;;;;;;;8.13;4.95;;;28.40;54.70;;;;;;1923435;73;21184;-74
2022/01/19 08:27:31;;;;;;;7.15;4.75;;;28.40;54.60;;;;;;1891277;73;21575;-74
2022/01/19 08:30:02;;;;;;;8.13;5.08;;;28.40;54.60;;;;;;1887024;74;21243;-74
2022/01/19 08:32:35;;;;;;;8.10;5.08;;;28.30;54.80;;;;;;1877981;74;21323;-72
2022/01/19 08:35:07;;;;;;;6.80;5.00;;;28.30;54.70;;;;;;1860883;74;21115;-71
2022/01/19 08:37:39;;;;;;;8.58;4.92;;;28.30;54.80;;;;;;1958397;72;21176;-73
2022/01/19 08:40:11;;;;;;;7.17;4.85;;;28.30;54.90;;;;;;1958298;72;21052;-73
2022/01/19 08:42:42;;;;;;;7.17;4.97;;;28.30;54.90;;;;;;1941618;71;21211;-74
2022/01/19 08:45:13;;;;;;;10.45;6.25;;;28.20;55.20;;;;;;1954928;72;21166;-75
2022/01/19 08:47:44;;;;;;;7.17;5.60;;;28.20;55.20;;;;;;1872919;74;21193;-73
2022/01/19 08:50:16;;;;;;;9.30;6.03;;;28.20;55.40;;;;;;1965318;71;21142;-74
2022/01/19 08:52:47;;;;;;;7.72;5.28;;;28.20;55.50;;;;;;1958549;72;21133;-73
2022/01/19 08:55:19;;;;;;;7.12;5.58;;;28.10;55.30;;;;;;1946448;72;21083;-74
2022/01/19 08:57:51;;;;;;;9.03;5.50;;;28.20;55.10;;;;;;1953839;72;21200;-73
2022/01/19 09:00:23;;;;;;;6.65;4.62;;;28.20;55.10;;;;;;1965869;71;21174;-73
2022/01/19 09:02:53;;;;;;;7.53;5.22;;;28.10;55.30;;;;;;1889195;74;21157;-74
2022/01/19 09:05:26;;;;;;;10.15;4.60;;;28.10;55.30;;;;;;1900772;73;21761;-73
2022/01/19 09:07:57;;;;;;;7.20;4.70;;;28.10;55.50;;;;;;1897860;74;21128;-73
2022/01/19 09:10:28;;;;;;;8.60;4.65;;;28.10;55.00;;;;;;1879810;74;21142;-72
2022/01/19 09:13:00;;;;;;;7.80;4.53;;;28.10;55.50;;;;;;1902567;74;21170;-73
2022/01/19 09:15:31;;;;;;;10.82;5.37;;;28.10;55.40;;;;;;1921561;73;21666;-72
2022/01/19 09:18:03;;;;;;;7.47;4.92;;;28.10;55.50;;;;;;1948454;72;21118;-73
2022/01/19 09:20:33;;;;;;;9.40;5.75;;;28.10;55.40;;;;;;1961624;71;21155;-72
2022/01/19 09:23:04;;;;;;;7.72;5.45;;;28.10;55.30;;;;;;1961804;72;21949;-73
2022/01/19 09:25:35;;;;;;;7.80;5.40;;;28.10;55.30;;;;;;1956234;72;21155;-73
2022/01/19 09:28:07;;;;;;;9.65;6.53;;;28.10;55.20;;;;;;1954054;72;21699;-73
2022/01/19 09:30:41;;;;;;;10.35;6.47;;;28.10;55.60;;;;;;1966077;72;21212;-72
2022/01/19 09:33:11;;;;;;;8.63;5.65;;;28.10;55.50;;;;;;1968109;72;21591;-73
2022/01/19 09:38:15;;;;;;;9.55;5.47;;;28.00;55.50;;;;;;1933260;72;21661;-73
2022/01/19 09:40:46;;;;;;;6.45;5.17;;;28.00;55.50;;;;;;1959567;72;21122;-73
2022/01/19 09:43:21;;;;;;;9.58;6.05;;;28.00;55.40;;;;;;1887823;73;21102;-72
2022/01/19 09:45:51;;;;;;;11.68;5.92;;;28.00;55.50;;;;;;1979285;70;21115;-73
2022/01/19 09:48:22;;;;;;;10.15;6.12;;;28.00;55.70;;;;;;1958544;72;21238;-73
2022/01/19 09:50:55;;;;;;;8.90;5.90;;;28.00;55.50;;;;;;1950068;72;21185;-74
2022/01/19 09:53:29;;;;;;;9.23;6.05;;;27.90;55.50;;;;;;1954745;72;21099;-72
2022/01/19 09:56:02;;;;;;;8.98;6.08;;;28.00;55.60;;;;;;1963147;71;21126;-72
2022/01/19 09:58:33;;;;;;;7.75;5.62;;;27.90;55.40;;;;;;1973899;71;21603;-73
2022/01/19 10:01:03;;;;;;;10.40;6.42;;;27.90;55.70;;;;;;1908268;73;21214;-72
2022/01/19 10:03:35;;;;;;;12.85;5.92;;;27.90;55.80;;;;;;1966416;72;21103;-72
2022/01/19 10:06:08;;;;;;;13.62;9.25;;;27.80;55.70;;;;;;1961757;72;21106;-72
2022/01/19 10:08:42;;;;;;;10.18;7.37;;;27.70;55.90;;;;;;1967418;72;21082;-72
2022/01/19 10:18:51;;;;;;;9.93;6.67;;;27.60;56.20;;;;;;1877060;74;21496;-73
2022/01/19 10:21:22;;;;;;;10.93;7.08;;;27.60;56.50;;;;;;1918676;73;21146;-73
2022/01/19 10:23:55;;;;;;;12.73;7.70;;;27.60;56.80;;;;;;1884599;74;21139;-72
2022/01/19 10:26:28;;;;;;;10.28;7.12;;;27.50;57.20;;;;;;1918706;73;21163;-73
2022/01/19 10:29:03;;;;;;;12.68;7.75;;;27.60;57.20;;;;;;1888720;73;21216;-72
2022/01/19 10:31:36;;;;;;;15.65;7.97;;;27.50;57.10;;;;;;1884794;73;21188;-73
2022/01/19 10:34:09;;;;;;;15.85;7.87;;;27.50;57.30;;;;;;1885796;74;21219;-72
2022/01/19 10:36:42;;;;;;;13.43;6.80;;;27.50;57.40;;;;;;1885970;74;21127;-72
2022/01/19 10:39:15;;;;;;;11.60;7.58;;;27.40;57.40;;;;;;1884066;74;21599;-72
2022/01/19 10:41:49;;;;;;;13.50;6.62;;;27.40;57.70;;;;;;1876699;75;21160;-72
2022/01/19 10:44:23;;;;;;;11.15;7.85;;;27.40;57.10;;;;;;1893348;74;21655;-72
2022/01/19 10:46:55;;;;;;;12.25;7.78;;;27.40;57.20;;;;;;1926022;73;21189;-72
2022/01/19 10:49:26;;;;;;;10.85;8.13;;;27.30;57.40;;;;;;1964724;71;21147;-72
2022/01/19 10:51:58;;;;;;;12.70;8.25;;;27.30;57.40;;;;;;1950576;73;21143;-71
2022/01/19 10:54:31;;;;;;;13.95;7.67;;;27.30;57.50;;;;;;1961542;72;22301;-72
2022/01/19 10:57:04;;;;;;;16.87;8.33;;;27.30;57.60;;;;;;1959649;72;21501;-71
2022/01/19 10:59:37;;;;;;;12.37;8.75;;;27.20;57.80;;;;;;1955884;71;21145;-72
2022/01/19 11:02:09;;;;;;;17.92;8.30;;;27.20;57.90;;;;;;1944763;72;21121;-71
2022/01/19 11:04:42;;;;;;;14.23;8.75;;;27.20;58.00;;;;;;1947256;72;21644;-72
2022/01/19 11:07:16;;;;;;;17.67;9.00;;;27.10;58.00;;;;;;1961411;72;21110;-72
2022/01/19 11:10:00;;;;;;;13.68;9.13;;;27.10;58.30;;;;;;1963081;72;21072;-71
2022/01/19 11:12:21;;;;;;;16.50;9.33;;;27.10;58.30;;;;;;1950156;72;21080;-78
2022/01/19 11:14:51;;;;;;;14.38;8.73;;;27.10;58.50;;;;;;1947379;72;21587;-83
2022/01/19 11:17:23;;;;;;;15.38;9.93;;;27.10;58.70;;;;;;1971279;72;21638;-83
2022/01/19 11:19:54;;;;;;;14.63;9.43;;;27.00;58.70;;;;;;1958710;72;21190;-83
2022/01/19 11:22:27;;;;;;;13.88;9.65;;;27.00;58.80;;;;;;1983247;71;21060;-83
2022/01/19 11:25:00;;;;;;;23.70;10.00;;;27.00;58.90;;;;;;1953715;72;21208;-82
2022/01/19 11:27:33;;;;;;;14.20;9.75;;;26.90;59.00;;;;;;1949547;72;22552;-82
2022/01/19 11:30:06;;;;;;;15.70;10.15;;;26.90;59.90;;;;;;1966495;72;21197;-83
2022/01/19 11:32:37;;;;;;;16.42;10.05;;;26.90;59.20;;;;;;1961863;72;21644;-82
2022/01/19 11:35:09;;;;;;;17.00;9.05;;;26.90;59.30;;;;;;1893156;73;21154;-83
2022/01/19 11:37:42;;;;;;;15.80;10.90;;;26.90;59.20;;;;;;1877845;75;21659;-83
2022/01/19 11:40:15;;;;;;;18.23;12.18;;;26.90;59.30;;;;;;1879131;74;21178;-83
2022/01/19 11:42:46;;;;;;;23.85;12.33;;;26.90;59.50;;;;;;1949154;72;21106;-84
2022/01/19 11:45:20;;;;;;;20.48;12.55;;;26.80;59.50;;;;;;1946676;72;21118;-84
2022/01/19 11:47:56;;;;;;;20.33;12.97;;;26.80;59.60;;;;;;1947011;73;21220;-81
2022/01/19 11:50:29;;;;;;;18.02;11.25;;;26.80;59.70;;;;;;1970232;72;21143;-82
2022/01/19 11:53:08;;;;;;;17.82;12.23;;;26.80;59.70;;;;;;1976284;72;21923;-83
2022/01/19 11:55:33;;;;;;;20.05;12.47;;;26.80;59.90;;;;;;1942044;72;21212;-82
2022/01/19 11:58:06;;;;;;;16.80;12.43;;;26.80;59.90;;;;;;1928397;72;21173;-84
2022/01/19 12:00:42;;;;;;;19.25;11.90;;;26.80;59.80;;;;;;1967419;72;21165;-84
2022/01/19 12:03:16;;;;;;;17.65;11.68;;;26.80;59.90;;;;;;1962689;71;21515;-84
2022/01/19 12:05:53;;;;;;;22.93;16.75;;;26.70;59.90;;;;;;1963401;72;21059;-83
2022/01/19 12:08:24;;;;;;;179.95;133.63;;;26.80;60.00;;;;;;1964193;72;21284;-82
2022/01/19 12:10:59;;;;;;;55.60;43.98;;;26.70;60.10;;;;;;1969409;72;21555;-83
2022/01/19 12:16:09;;;;;;;55.08;34.90;;;26.70;60.20;;;;;;1974422;72;21131;-82
2022/01/19 12:18:38;;;;;;;16.82;12.50;;;26.70;60.30;;;;;;1967039;72;21107;-83
2022/01/19 12:21:11;;;;;;;20.48;16.10;;;26.70;60.20;;;;;;1969292;71;21590;-81
2022/01/19 12:23:43;;;;;;;24.00;14.75;;;26.70;60.40;;;;;;1906834;74;21189;-81
2022/01/19 12:26:16;;;;;;;15.35;11.50;;;26.70;60.50;;;;;;1915161;73;21184;-84
2022/01/19 12:28:47;;;;;;;18.70;12.73;;;26.70;60.30;;;;;;1882318;75;22630;-82
2022/01/19 12:31:21;;;;;;;20.85;13.10;;;26.70;60.40;;;;;;1893590;73;21120;-83
2022/01/19 12:33:54;;;;;;;21.62;15.90;;;26.80;60.40;;;;;;1895100;73;21602;-83
2022/01/19 12:36:27;;;;;;;20.27;12.98;;;26.80;60.60;;;;;;1959068;72;21126;-83
2022/01/19 12:39:00;;;;;;;23.45;16.20;;;26.80;60.40;;;;;;1902968;73;21208;-83
2022/01/19 12:41:33;;;;;;;18.05;11.05;;;26.90;60.50;;;;;;1892706;74;21521;-82
2022/01/19 12:44:06;;;;;;;18.00;11.18;;;27.00;60.20;;;;;;1910647;73;21070;-83
2022/01/19 12:46:38;;;;;;;24.65;12.65;;;27.10;60.00;;;;;;1907148;73;21568;-83
2022/01/19 12:49:12;;;;;;;17.10;11.25;;;27.10;60.00;;;;;;1966764;71;21223;-83
2022/01/19 12:51:43;;;;;;;16.32;12.10;;;27.10;60.00;;;;;;1958695;72;21087;-83
2022/01/19 12:54:16;;;;;;;19.57;12.95;;;27.10;59.80;;;;;;1968999;72;21134;-82
2022/01/19 12:56:59;;;;;;;19.00;12.13;;;27.10;60.00;;;;;;1963064;72;21218;-82
2022/01/19 12:59:27;;;;;;;20.90;12.63;;;27.10;60.00;;;;;;1960243;72;21032;-82
2022/01/19 13:01:59;;;;;;;21.75;12.68;;;27.10;60.10;;;;;;1960139;72;21612;-82
2022/01/19 13:04:33;;;;;;;21.27;13.40;;;27.10;60.10;;;;;;1960204;71;21694;-83
2022/01/19 13:07:07;;;;;;;20.27;13.38;;;27.10;60.20;;;;;;1962431;72;21056;-82
2022/01/19 13:09:42;;;;;;;25.10;14.00;;;27.10;60.40;;;;;;1952979;72;21052;-83
2022/01/19 13:12:15;;;;;;;22.37;13.43;;;27.00;60.90;;;;;;1954155;71;21067;-82
2022/01/19 13:14:46;;;;;;;22.52;13.88;;;26.90;61.00;;;;;;1967035;72;21186;-83
2022/01/19 13:17:17;;;;;;;23.80;14.13;;;26.90;61.40;;;;;;1968198;72;21188;-83
2022/01/19 13:19:49;;;;;;;22.50;13.80;;;26.80;61.40;;;;;;1961751;71;21059;-83
2022/01/19 13:22:20;;;;;;;22.90;13.00;;;26.80;61.60;;;;;;1886759;73;21728;-82
2022/01/19 13:24:51;;;;;;;22.35;14.43;;;26.70;61.90;;;;;;1897614;73;21087;-82
2022/01/19 13:27:26;;;;;;;56.48;41.50;;;26.70;62.30;;;;;;1905099;73;21210;-82
2022/01/19 13:29:57;;;;;;;28.67;15.83;;;26.70;62.40;;;;;;1886775;74;21167;-82
2022/01/19 13:32:28;;;;;;;21.37;14.85;;;26.60;62.90;;;;;;1900939;73;21156;-82
2022/01/19 13:35:10;;;;;;;26.17;14.95;;;26.50;63.30;;;;;;1961000;72;21115;-84
2022/01/19 13:37:45;;;;;;;21.25;14.70;;;26.40;63.30;;;;;;1954630;72;21656;-85
2022/01/19 13:40:18;;;;;;;21.62;15.75;;;26.30;63.60;;;;;;1968968;71;21163;-81
2022/01/19 13:42:52;;;;;;;25.60;15.68;;;26.20;63.90;;;;;;1952354;72;21210;-80
2022/01/19 13:45:35;;;;;;;25.80;16.70;;;26.20;64.50;;;;;;1961128;72;21119;-83
2022/01/19 13:48:20;;;;;;;24.57;16.42;;;26.20;64.70;;;;;;1945587;72;21127;-81
2022/01/19 13:50:34;;;;;;;25.92;16.48;;;26.10;65.00;;;;;;1958297;72;21259;-82
2022/01/19 13:53:05;;;;;;;26.25;16.87;;;26.10;65.20;;;;;;1900784;73;21116;-83
2022/01/19 13:55:36;;;;;;;29.12;15.70;;;26.00;65.00;;;;;;1889970;74;21674;-83
2022/01/19 13:58:09;;;;;;;27.20;16.80;;;26.00;65.10;;;;;;1895651;74;21205;-82
2022/01/19 14:00:44;;;;;;;28.52;17.45;;;26.00;65.30;;;;;;1887912;74;21173;-80
2022/01/19 14:03:16;;;;;;;26.45;15.83;;;25.90;65.50;;;;;;1887548;74;21461;-83
2022/01/19 14:05:52;;;;;;;31.57;18.27;;;25.90;66.00;;;;;;1898449;74;21148;-82
2022/01/19 14:08:25;;;;;;;37.88;23.47;;;25.90;66.40;;;;;;1892459;73;21244;-81
2022/01/19 14:10:56;;;;;;;29.72;17.07;;;25.90;66.90;;;;;;1909162;73;21103;-83
2022/01/19 14:13:30;;;;;;;33.95;17.73;;;25.90;66.60;;;;;;1895472;74;21172;-83
2022/01/19 14:16:03;;;;;;;29.37;17.45;;;25.80;66.50;;;;;;1872010;74;21214;-83
2022/01/19 14:18:33;;;;;;;28.42;16.65;;;25.80;66.60;;;;;;1887916;74;21215;-83
2022/01/19 14:21:06;;;;;;;32.93;18.10;;;25.80;66.60;;;;;;1888737;75;21088;-82
2022/01/19 14:23:38;;;;;;;29.70;17.70;;;25.70;66.50;;;;;;1896556;75;21584;-82
2022/01/19 14:26:11;;;;;;;34.88;17.62;;;25.80;66.60;;;;;;1893368;75;21187;-82
2022/01/19 14:28:41;;;;;;;32.63;17.75;;;25.70;66.50;;;;;;1887002;76;21107;-83
2022/01/19 14:31:14;;;;;;;30.12;17.23;;;25.70;66.80;;;;;;1889744;75;21140;-81